createdAt,value
2019-02-25T00:00:59.210Z,103869.34
2019-02-25T00:03:26.491Z,103876.35
2019-02-25T00:05:53.859Z,103873.63
2019-02-25T00:08:21.052Z,103873.63
2019-02-25T00:10:48.278Z,103881.48
2019-02-25T00:13:15.518Z,103881.48
2019-02-25T00:15:42.733Z,103878.70
2019-02-25T00:18:09.913Z,103878.70
2019-02-25T00:20:37.138Z,103880.47
2019-02-25T00:23:04.443Z,103883.94
2019-02-25T00:25:31.628Z,103887.41
2019-02-25T00:27:58.829Z,103889.13
2019-02-25T00:30:26.069Z,103885.65
2019-02-25T00:32:53.237Z,103878.66
2019-02-25T00:35:20.424Z,103889.08
2019-02-25T00:37:47.630Z,103895.68
2019-02-25T00:40:14.895Z,103902.67
2019-02-25T00:42:42.067Z,103912.25
2019-02-25T00:45:09.290Z,103908.27
2019-02-25T00:47:36.567Z,103900.82
2019-02-25T00:50:04.900Z,103895.46
2019-02-25T00:52:32.122Z,103895.46
2019-02-25T00:54:59.297Z,103880.64
2019-02-25T00:57:26.527Z,103875.31
2019-02-25T00:59:53.816Z,103886.24
2019-02-25T01:02:20.988Z,103879.64
2019-02-25T01:04:48.208Z,103877.02
2019-02-25T01:07:15.375Z,103869.45
2019-02-25T01:09:42.528Z,103880.44
2019-02-25T01:12:09.799Z,103882.59
2019-02-25T01:14:36.956Z,103884.81
2019-02-25T01:17:04.278Z,103878.53
2019-02-25T01:19:31.500Z,103886.34
2019-02-25T01:21:58.667Z,103886.34
2019-02-25T01:24:25.933Z,103885.03
2019-02-25T01:26:53.123Z,103883.70
2019-02-25T01:29:20.482Z,103874.95
2019-02-25T01:31:48.215Z,103874.95
2019-02-25T01:34:15.404Z,103878.77
2019-02-25T01:36:42.691Z,103897.62
2019-02-25T01:39:09.854Z,103897.62
2019-02-25T01:41:37.023Z,103893.17
2019-02-25T01:44:04.362Z,103893.63
2019-02-25T01:46:31.561Z,103878.16
2019-02-25T01:48:58.787Z,103874.72
2019-02-25T01:51:26.055Z,103879.05
2019-02-25T01:53:53.257Z,103875.98
2019-02-25T01:56:20.452Z,103867.91
2019-02-25T01:58:47.666Z,103871.05
2019-02-25T02:01:14.870Z,103869.28
2019-02-25T02:03:42.148Z,103854.92
2019-02-25T02:06:09.333Z,103854.92
2019-02-25T02:08:36.530Z,103851.74
2019-02-25T02:11:03.738Z,103851.74
2019-02-25T02:13:30.941Z,103835.02
2019-02-25T02:15:58.151Z,103837.30
2019-02-25T02:18:25.363Z,103837.30
2019-02-25T02:20:52.605Z,103814.02
2019-02-25T02:23:19.810Z,103825.44
2019-02-25T02:25:47.275Z,103825.46
2019-02-25T02:28:14.492Z,103818.90
2019-02-25T02:30:41.699Z,103806.67
2019-02-25T02:33:09.017Z,103806.67
2019-02-25T02:35:36.221Z,103793.52
2019-02-25T02:38:03.380Z,103793.52
2019-02-25T02:40:30.563Z,103797.75
2019-02-25T02:42:57.874Z,103795.52
2019-02-25T02:45:47.087Z,103809.13
2019-02-25T02:48:27.757Z,103799.50
2019-02-25T02:50:54.938Z,103784.15
2019-02-25T02:53:22.142Z,103787.72
2019-02-25T02:55:49.480Z,103787.23
2019-02-25T02:58:16.657Z,103785.84
2019-02-25T03:00:43.839Z,103785.84
2019-02-25T03:03:11.082Z,103786.77
2019-02-25T03:05:38.405Z,103786.77
2019-02-25T03:08:05.595Z,103790.19
2019-02-25T03:10:32.805Z,103790.13
2019-02-25T03:13:00.024Z,103788.83
2019-02-25T03:15:27.219Z,103786.20
2019-02-25T03:17:54.483Z,103798.73
2019-02-25T03:20:21.756Z,103798.73
2019-02-25T03:22:48.952Z,103796.06
2019-02-25T03:25:16.183Z,103805.61
2019-02-25T03:27:43.397Z,103813.97
2019-02-25T03:30:15.461Z,103822.62
2019-02-25T03:32:42.662Z,103829.56
2019-02-25T03:35:09.874Z,103842.66
2019-02-25T03:37:37.103Z,103836.11
2019-02-25T03:40:05.185Z,103826.55
2019-02-25T03:42:32.384Z,103826.55
2019-02-25T03:44:59.737Z,103825.63
2019-02-25T03:47:26.894Z,103825.63
2019-02-25T03:49:54.099Z,103834.34
2019-02-25T03:52:21.334Z,103823.36
2019-02-25T03:54:48.488Z,103823.36
2019-02-25T03:57:15.701Z,103820.69
2019-02-25T03:59:42.903Z,103819.31
2019-02-25T04:02:10.140Z,103824.16
2019-02-25T04:04:37.482Z,103824.16
2019-02-25T04:07:04.663Z,103823.70
2019-02-25T04:09:31.826Z,103837.63
2019-02-25T04:11:59.159Z,103836.62
2019-02-25T04:14:26.370Z,103827.39
2019-02-25T04:16:53.559Z,103827.39
2019-02-25T04:19:20.775Z,103846.30
2019-02-25T04:21:47.963Z,103849.76
2019-02-25T04:24:15.237Z,103855.38
2019-02-25T04:26:42.475Z,103855.38
2019-02-25T04:29:09.675Z,103840.20
2019-02-25T04:31:36.911Z,103853.84
2019-02-25T04:34:04.081Z,103853.84
2019-02-25T04:36:31.320Z,103848.62
2019-02-25T04:38:58.494Z,103844.23
2019-02-25T04:41:25.731Z,103837.23
2019-02-25T04:43:52.895Z,103837.23
2019-02-25T04:46:20.196Z,103827.50
2019-02-25T04:48:47.384Z,103831.26
2019-02-25T04:51:14.582Z,103818.98
2019-02-25T04:53:41.843Z,103814.77
2019-02-25T04:56:09.051Z,103807.78
2019-02-25T04:58:36.240Z,103807.78
2019-02-25T05:01:03.473Z,103819.38
2019-02-25T05:03:30.628Z,103819.38
2019-02-25T05:05:57.844Z,103826.95
2019-02-25T05:08:25.030Z,103827.80
2019-02-25T05:10:52.278Z,103841.12
2019-02-25T05:13:19.487Z,103837.47
2019-02-25T05:15:46.662Z,103838.89
2019-02-25T05:18:13.967Z,103838.89
2019-02-25T05:20:41.171Z,103839.30
2019-02-25T05:23:08.346Z,103834.34
2019-02-25T05:25:35.591Z,103848.05
2019-02-25T05:28:02.819Z,103854.20
2019-02-25T05:30:30.022Z,103855.50
2019-02-25T05:32:57.283Z,103858.13
2019-02-25T05:35:24.462Z,103865.97
2019-02-25T05:37:51.643Z,103865.97
2019-02-25T05:40:18.995Z,103870.30
2019-02-25T05:42:46.269Z,103871.27
2019-02-25T05:45:13.449Z,103871.27
2019-02-25T05:47:40.808Z,103863.75
2019-02-25T05:50:10.339Z,103863.75
2019-02-25T05:52:37.556Z,103868.58
2019-02-25T05:55:06.200Z,103873.77
2019-02-25T05:57:33.388Z,103882.48
2019-02-25T06:00:00.661Z,103886.84
2019-02-25T06:02:27.827Z,103886.84
2019-02-25T06:04:55.030Z,103889.52
2019-02-25T06:07:22.281Z,103886.41
2019-02-25T06:09:49.466Z,103898.92
2019-02-25T06:12:16.665Z,103898.92
2019-02-25T06:14:43.979Z,103901.66
2019-02-25T06:17:11.167Z,103904.84
2019-02-25T06:19:38.340Z,103915.64
2019-02-25T06:22:05.623Z,103912.13
2019-02-25T06:24:32.844Z,103902.28
2019-02-25T06:27:00.023Z,103913.31
2019-02-25T06:29:27.249Z,103895.00
2019-02-25T06:31:55.006Z,103895.00
2019-02-25T06:34:22.219Z,103900.80
2019-02-25T06:36:49.390Z,103900.80
2019-02-25T06:39:16.604Z,103902.50
2019-02-25T06:41:43.967Z,103907.22
2019-02-25T06:44:11.186Z,103905.97
2019-02-25T06:46:38.347Z,103900.16
2019-02-25T06:49:05.585Z,103889.63
2019-02-25T06:51:32.888Z,103903.30
2019-02-25T06:54:00.103Z,103911.66
2019-02-25T06:56:27.344Z,103911.66
2019-02-25T06:58:54.555Z,103904.33
2019-02-25T07:01:21.718Z,103912.30
2019-02-25T07:04:08.526Z,103908.66
2019-02-25T07:06:50.106Z,103915.77
2019-02-25T07:09:25.277Z,103919.97
2019-02-25T07:12:05.394Z,103919.97
2019-02-25T07:14:57.790Z,103936.71
2019-02-25T07:17:43.111Z,103941.48
2019-02-25T07:20:35.852Z,103945.19
2019-02-25T07:23:21.059Z,103948.14
2019-02-25T07:26:14.107Z,103948.14
2019-02-25T07:28:59.616Z,103946.89
2019-02-25T07:31:42.255Z,103942.52
2019-02-25T07:34:15.778Z,103945.08
2019-02-25T07:36:55.007Z,103960.16
2019-02-25T07:39:56.928Z,103962.16
2019-02-25T07:42:47.579Z,103971.54
2019-02-25T07:45:34.417Z,103967.91
2019-02-25T07:48:09.703Z,103972.30
2019-02-25T07:50:49.750Z,103972.30
2019-02-25T07:53:42.509Z,103975.35
2019-02-25T07:56:47.519Z,103972.27
2019-02-25T07:59:21.926Z,103979.39
2019-02-25T08:02:07.239Z,103974.89
2019-02-25T08:04:42.344Z,103974.89
2019-02-25T08:07:26.770Z,103989.99
2019-02-25T08:10:16.267Z,103989.20
2019-02-25T08:13:02.090Z,103979.47
2019-02-25T08:15:34.935Z,103989.31
2019-02-25T08:18:19.989Z,103979.47
2019-02-25T08:21:06.736Z,103979.47
2019-02-25T08:23:59.797Z,103965.63
2019-02-25T08:26:49.137Z,103974.69
2019-02-25T08:29:41.745Z,103974.69
2019-02-25T08:32:26.023Z,103958.09
2019-02-25T08:35:16.427Z,103964.42
2019-02-25T08:38:12.541Z,103962.26
2019-02-25T08:41:10.706Z,103962.08
2019-02-25T08:43:57.442Z,103957.76
2019-02-25T08:46:44.963Z,103951.23
2019-02-25T08:49:33.720Z,103948.32
2019-02-25T08:52:01.010Z,103935.63
2019-02-25T08:54:28.196Z,103932.20
2019-02-25T08:56:55.402Z,103925.75
2019-02-25T08:59:22.633Z,103922.43
2019-02-25T09:01:49.847Z,103922.43
2019-02-25T09:04:17.026Z,103911.59
2019-02-25T09:06:44.226Z,103912.50
2019-02-25T09:09:11.441Z,103920.88
2019-02-25T09:11:38.634Z,103908.98
2019-02-25T09:14:05.927Z,103908.68
2019-02-25T09:16:33.115Z,103910.09
2019-02-25T09:19:00.354Z,103903.58
2019-02-25T09:21:31.755Z,103913.38
2019-02-25T09:23:56.713Z,103906.41
2019-02-25T09:26:23.909Z,103903.39
2019-02-25T09:28:51.110Z,103895.27
2019-02-25T09:31:18.311Z,103902.27
2019-02-25T09:33:45.505Z,103890.92
2019-02-25T09:36:12.716Z,103880.98
2019-02-25T09:38:39.866Z,103868.42
2019-02-25T09:41:07.154Z,103873.76
2019-02-25T09:43:34.350Z,103866.53
2019-02-25T09:46:01.560Z,103864.85
2019-02-25T09:48:28.759Z,103862.73
2019-02-25T09:50:55.982Z,103856.67
2019-02-25T09:53:23.154Z,103858.02
2019-02-25T09:55:50.304Z,103859.79
2019-02-25T09:58:17.551Z,103864.23
2019-02-25T10:00:46.174Z,103862.05
2019-02-25T10:03:13.490Z,103854.64
2019-02-25T10:05:40.702Z,103857.35
2019-02-25T10:08:07.888Z,103861.29
2019-02-25T10:10:35.086Z,103865.68
2019-02-25T10:13:02.290Z,103877.98
2019-02-25T10:15:29.647Z,103880.61
2019-02-25T10:17:56.825Z,103881.97
2019-02-25T10:20:23.974Z,103891.20
2019-02-25T10:22:51.234Z,103884.28
2019-02-25T10:25:18.429Z,103894.41
2019-02-25T10:27:45.689Z,103889.20
2019-02-25T10:30:12.850Z,103887.08
2019-02-25T10:32:40.022Z,103892.83
2019-02-25T10:35:09.395Z,103884.09
2019-02-25T10:37:38.650Z,103871.02
2019-02-25T10:40:06.478Z,103865.36
2019-02-25T10:42:35.580Z,103864.58
2019-02-25T10:45:04.729Z,103857.66
2019-02-25T10:47:32.251Z,103858.11
2019-02-25T10:50:00.750Z,103850.31
2019-02-25T10:52:28.494Z,103843.75
2019-02-25T10:54:56.209Z,103844.25
2019-02-25T10:57:27.194Z,103846.05
2019-02-25T10:59:53.991Z,103837.41
2019-02-25T11:02:21.159Z,103834.69
2019-02-25T11:04:49.408Z,103837.81
2019-02-25T11:07:17.482Z,103843.64
2019-02-25T11:09:58.334Z,103840.31
2019-02-25T11:12:26.219Z,103847.42
2019-02-25T11:14:54.631Z,103844.05
2019-02-25T11:17:22.492Z,103845.48
2019-02-25T11:19:50.943Z,103851.34
2019-02-25T11:22:18.174Z,103847.89
2019-02-25T11:24:47.431Z,103846.20
2019-02-25T11:27:14.455Z,103841.85
2019-02-25T11:29:42.491Z,103846.69
2019-02-25T11:32:10.827Z,103853.30
2019-02-25T11:34:39.807Z,103853.34
2019-02-25T11:37:07.072Z,103852.06
2019-02-25T11:39:35.065Z,103843.77
2019-02-25T11:42:05.530Z,103846.02
2019-02-25T11:44:32.479Z,103842.98
2019-02-25T11:46:59.716Z,103843.02
2019-02-25T11:49:26.892Z,103840.84
2019-02-25T11:51:54.051Z,103845.69
2019-02-25T11:54:21.252Z,103847.04
2019-02-25T11:56:48.440Z,103839.64
2019-02-25T11:59:15.688Z,103831.34
2019-02-25T12:01:42.893Z,103832.73
2019-02-25T12:04:10.074Z,103823.98
2019-02-25T12:06:37.332Z,103817.00
2019-02-25T12:09:04.945Z,103812.71
2019-02-25T12:11:32.071Z,103812.75
2019-02-25T12:13:59.282Z,103807.56
2019-02-25T12:16:26.469Z,103800.16
2019-02-25T12:18:53.782Z,103799.81
2019-02-25T12:21:20.975Z,103819.56
2019-02-25T12:23:48.139Z,103824.86
2019-02-25T12:26:15.339Z,103820.95
2019-02-25T12:28:42.535Z,103814.86
2019-02-25T12:31:09.715Z,103806.14
2019-02-25T12:33:36.942Z,103808.39
2019-02-25T12:36:04.138Z,103802.75
2019-02-25T12:38:31.313Z,103799.73
2019-02-25T12:40:58.470Z,103791.88
2019-02-25T12:43:25.659Z,103784.50
2019-02-25T12:45:52.876Z,103771.35
2019-02-25T12:48:20.024Z,103770.10
2019-02-25T12:50:47.262Z,103772.77
2019-02-25T12:53:14.444Z,103768.02
2019-02-25T12:55:41.637Z,103771.09
2019-02-25T12:58:08.842Z,103768.50
2019-02-25T13:00:36.041Z,103769.84
2019-02-25T13:03:03.364Z,103780.84
2019-02-25T13:05:30.527Z,103787.94
2019-02-25T13:07:57.738Z,103786.61
2019-02-25T13:10:24.942Z,103782.25
2019-02-25T13:12:52.115Z,103778.75
2019-02-25T13:15:19.339Z,103775.28
2019-02-25T13:17:46.581Z,103777.98
2019-02-25T13:20:13.837Z,103771.05
2019-02-25T13:22:41.020Z,103774.59
2019-02-25T13:25:10.589Z,103773.34
2019-02-25T13:27:38.251Z,103769.03
2019-02-25T13:30:07.703Z,103765.61
2019-02-25T13:32:34.850Z,103771.80
2019-02-25T13:35:02.026Z,103768.81
2019-02-25T13:37:29.284Z,103773.27
2019-02-25T13:39:56.464Z,103775.52
2019-02-25T13:42:23.666Z,103776.03
2019-02-25T13:44:50.895Z,103772.16
2019-02-25T13:47:18.102Z,103764.31
2019-02-25T13:49:45.582Z,103770.08
2019-02-25T13:52:13.095Z,103768.83
2019-02-25T13:54:40.421Z,103763.20
2019-02-25T13:57:07.650Z,103751.84
2019-02-25T13:59:34.831Z,103749.31
2019-02-25T14:02:02.002Z,103740.12
2019-02-25T14:04:29.304Z,103734.94
2019-02-25T14:06:56.541Z,103728.37
2019-02-25T14:09:23.718Z,103730.58
2019-02-25T14:11:51.190Z,103724.43
2019-02-25T14:14:18.401Z,103730.20
2019-02-25T14:16:45.593Z,103727.20
2019-02-25T14:19:12.792Z,103727.31
2019-02-25T14:21:40.035Z,103727.02
2019-02-25T14:24:07.227Z,103733.82
2019-02-25T14:26:34.383Z,103738.40
2019-02-25T14:29:02.100Z,103729.27
2019-02-25T14:31:29.920Z,103728.54
2019-02-25T14:33:57.264Z,103734.31
2019-02-25T14:36:24.546Z,103728.66
2019-02-25T14:38:53.631Z,103719.97
2019-02-25T14:41:21.323Z,103711.27
2019-02-25T14:43:49.683Z,103709.09
2019-02-25T14:46:21.790Z,103708.70
2019-02-25T14:48:46.887Z,103699.94
2019-02-25T14:51:14.090Z,103696.43
2019-02-25T14:53:42.281Z,103698.20
2019-02-25T14:56:10.350Z,103692.91
2019-02-25T14:58:37.848Z,103688.52
2019-02-25T15:01:06.044Z,103687.16
2019-02-25T15:03:33.224Z,103688.03
2019-02-25T15:06:00.406Z,103679.64
2019-02-25T15:08:28.489Z,103679.24
2019-02-25T15:11:00.010Z,103685.42
2019-02-25T15:13:26.493Z,103685.45
2019-02-25T15:15:54.928Z,103692.95
2019-02-25T15:18:24.527Z,103681.52
2019-02-25T15:20:51.267Z,103682.41
2019-02-25T15:23:19.006Z,103680.66
2019-02-25T15:25:47.645Z,103685.55
2019-02-25T15:28:16.050Z,103675.39
2019-02-25T15:30:43.895Z,103694.83
2019-02-25T15:33:11.128Z,103691.30
2019-02-25T15:35:39.367Z,103686.94
2019-02-25T15:38:07.299Z,103687.87
2019-02-25T15:40:34.612Z,103694.03
2019-02-25T15:43:10.387Z,103689.19
2019-02-25T15:45:38.352Z,103696.67
2019-02-25T15:48:13.030Z,103704.20
2019-02-25T15:50:44.104Z,103699.78
2019-02-25T15:53:11.594Z,103692.75
2019-02-25T15:55:38.697Z,103694.94
2019-02-25T15:58:06.024Z,103697.58
2019-02-25T16:00:34.997Z,103693.64
2019-02-25T16:03:03.891Z,103693.61
2019-02-25T16:05:34.332Z,103687.89
2019-02-25T16:08:02.558Z,103679.95
2019-02-25T16:10:29.811Z,103676.88
2019-02-25T16:12:57.860Z,103689.20
2019-02-25T16:15:26.259Z,103685.23
2019-02-25T16:17:53.430Z,103684.33
2019-02-25T16:20:20.745Z,103686.98
2019-02-25T16:22:47.942Z,103688.70
2019-02-25T16:25:15.906Z,103694.84
2019-02-25T16:27:43.727Z,103694.38
2019-02-25T16:30:12.518Z,103693.91
2019-02-25T16:32:40.537Z,103689.91
2019-02-25T16:35:09.056Z,103686.33
2019-02-25T16:37:36.217Z,103688.00
2019-02-25T16:40:05.764Z,103696.22
2019-02-25T16:42:34.638Z,103708.45
2019-02-25T16:45:03.850Z,103711.84
2019-02-25T16:47:34.887Z,103717.39
2019-02-25T16:50:00.828Z,103714.68
2019-02-25T16:52:28.204Z,103711.94
2019-02-25T16:54:55.534Z,103706.97
2019-02-25T16:57:24.684Z,103711.72
2019-02-25T16:59:53.775Z,103717.35
2019-02-25T17:02:21.051Z,103718.12
2019-02-25T17:04:48.286Z,103719.34
2019-02-25T17:07:16.087Z,103709.11
2019-02-25T17:09:44.762Z,103701.53
2019-02-25T17:12:11.924Z,103713.70
2019-02-25T17:14:40.416Z,103707.84
2019-02-25T17:17:08.371Z,103707.69
2019-02-25T17:19:35.830Z,103706.25
2019-02-25T17:22:05.237Z,103708.31
2019-02-25T17:24:34.744Z,103702.05
2019-02-25T17:27:02.114Z,103696.63
2019-02-25T17:29:31.914Z,103700.49
2019-02-25T17:32:01.899Z,103699.05
2019-02-25T17:34:29.050Z,103698.48
2019-02-25T17:36:56.649Z,103705.39
2019-02-25T17:39:23.829Z,103696.09
2019-02-25T17:41:51.002Z,103695.95
2019-02-25T17:44:20.543Z,103696.31
2019-02-25T17:46:47.275Z,103707.15
2019-02-25T17:49:15.129Z,103702.70
2019-02-25T17:51:43.526Z,103699.53
2019-02-25T17:54:12.392Z,103694.17
2019-02-25T17:56:40.879Z,103693.21
2019-02-25T17:59:09.726Z,103686.12
2019-02-25T18:01:37.158Z,103691.77
2019-02-25T18:04:06.175Z,103691.67
2019-02-25T18:06:34.008Z,103696.00
2019-02-25T18:09:02.473Z,103701.60
2019-02-25T18:11:29.648Z,103709.42
2019-02-25T18:13:57.835Z,103700.16
2019-02-25T18:16:25.378Z,103700.05
2019-02-25T18:18:54.350Z,103706.17
2019-02-25T18:21:21.659Z,103697.77
2019-02-25T18:23:49.397Z,103688.95
2019-02-25T18:26:18.115Z,103689.30
2019-02-25T18:28:45.934Z,103698.91
2019-02-25T18:31:14.003Z,103695.27
2019-02-25T18:33:42.007Z,103699.14
2019-02-25T18:36:11.282Z,103696.44
2019-02-25T18:38:38.566Z,103697.72
2019-02-25T18:41:07.031Z,103699.38
2019-02-25T18:43:34.858Z,103694.50
2019-02-25T18:46:02.840Z,103691.42
2019-02-25T18:48:31.155Z,103695.28
2019-02-25T18:50:59.588Z,103707.55
2019-02-25T18:53:27.459Z,103705.75
2019-02-25T18:55:56.624Z,103711.79
2019-02-25T18:58:23.765Z,103721.77
2019-02-25T19:00:51.489Z,103718.69
2019-02-25T19:03:18.894Z,103709.88
2019-02-25T19:05:46.125Z,103708.97
2019-02-25T19:08:19.194Z,103698.43
2019-02-25T19:10:47.952Z,103693.14
2019-02-25T19:13:16.020Z,103687.41
2019-02-25T19:15:44.179Z,103677.77
2019-02-25T19:18:13.050Z,103668.13
2019-02-25T19:20:41.067Z,103668.95
2019-02-25T19:23:10.163Z,103662.77
2019-02-25T19:25:37.915Z,103682.04
2019-02-25T19:28:05.328Z,103682.89
2019-02-25T19:30:34.453Z,103682.82
2019-02-25T19:33:11.009Z,103700.29
2019-02-25T19:35:32.545Z,103697.66
2019-02-25T19:38:03.128Z,103693.24
2019-02-25T19:40:29.099Z,103693.31
2019-02-25T19:42:57.588Z,103681.44
2019-02-25T19:45:25.505Z,103680.94
2019-02-25T19:47:52.728Z,103676.96
2019-02-25T19:50:20.052Z,103677.41
2019-02-25T19:52:47.250Z,103661.67
2019-02-25T19:55:15.850Z,103653.76
2019-02-25T19:57:43.597Z,103648.44
2019-02-25T20:00:17.422Z,103645.77
2019-02-25T20:02:42.495Z,103643.14
2019-02-25T20:05:11.815Z,103652.73
2019-02-25T20:07:38.869Z,103654.42
2019-02-25T20:10:06.772Z,103656.11
2019-02-25T20:12:35.627Z,103658.77
2019-02-25T20:15:07.123Z,103645.53
2019-02-25T20:17:32.707Z,103639.47
2019-02-25T20:19:59.983Z,103633.36
2019-02-25T20:22:27.233Z,103638.64
2019-02-25T20:24:55.141Z,103643.84
2019-02-25T20:27:23.552Z,103646.84
2019-02-25T20:29:50.916Z,103651.64
2019-02-25T20:32:18.652Z,103656.84
2019-02-25T20:34:49.907Z,103643.73
2019-02-25T20:37:18.949Z,103639.80
2019-02-25T20:39:45.764Z,103643.73
2019-02-25T20:42:15.024Z,103647.13
2019-02-25T20:44:42.480Z,103643.61
2019-02-25T20:47:09.742Z,103643.20
2019-02-25T20:49:36.948Z,103635.54
2019-02-25T20:52:04.244Z,103630.34
2019-02-25T20:54:31.438Z,103632.92
2019-02-25T20:56:58.854Z,103639.97
2019-02-25T20:59:28.093Z,103657.42
2019-02-25T21:01:55.421Z,103665.30
2019-02-25T21:04:22.602Z,103657.63
2019-02-25T21:06:49.794Z,103662.91
2019-02-25T21:09:16.987Z,103657.30
2019-02-25T21:11:44.231Z,103657.67
2019-02-25T21:14:11.425Z,103662.38
2019-02-25T21:16:38.674Z,103663.69
2019-02-25T21:19:05.931Z,103665.48
2019-02-25T21:21:34.562Z,103665.09
2019-02-25T21:24:04.199Z,103657.67
2019-02-25T21:26:32.038Z,103665.54
2019-02-25T21:29:02.390Z,103651.07
2019-02-25T21:31:29.605Z,103648.48
2019-02-25T21:33:58.624Z,103661.16
2019-02-25T21:36:27.673Z,103669.47
2019-02-25T21:38:56.077Z,103656.77
2019-02-25T21:41:23.321Z,103648.89
2019-02-25T21:43:51.774Z,103652.38
2019-02-25T21:46:21.928Z,103653.36
2019-02-25T21:48:53.168Z,103645.04
2019-02-25T21:51:19.069Z,103642.45
2019-02-25T21:53:48.266Z,103634.14
2019-02-25T21:56:16.845Z,103633.27
2019-02-25T21:58:46.670Z,103627.58
2019-02-25T22:01:14.211Z,103621.35
2019-02-25T22:03:43.997Z,103630.91
2019-02-25T22:06:10.501Z,103629.44
2019-02-25T22:08:38.111Z,103621.53
2019-02-25T22:11:12.413Z,103624.06
2019-02-25T22:13:34.740Z,103615.71
2019-02-25T22:16:03.566Z,103615.70
2019-02-25T22:18:34.144Z,103620.91
2019-02-25T22:21:05.126Z,103605.22
2019-02-25T22:23:32.750Z,103605.22
2019-02-25T22:26:00.395Z,103623.56
2019-02-25T22:28:28.807Z,103634.55
2019-02-25T22:30:56.999Z,103638.36
2019-02-25T22:33:27.850Z,103647.88
2019-02-25T22:35:53.602Z,103655.91
2019-02-25T22:38:20.866Z,103642.70
2019-02-25T22:40:48.262Z,103652.42
2019-02-25T22:43:16.402Z,103652.42
2019-02-25T22:45:44.784Z,103648.44
2019-02-25T22:48:13.943Z,103651.81
2019-02-25T22:50:41.376Z,103642.42
2019-02-25T22:53:09.370Z,103630.95
2019-02-25T22:55:41.784Z,103636.64
2019-02-25T22:58:08.847Z,103636.98
2019-02-25T23:00:42.650Z,103629.47
2019-02-25T23:03:11.367Z,103623.25
2019-02-25T23:05:42.994Z,103619.68
2019-02-25T23:08:10.936Z,103619.68
2019-02-25T23:10:40.042Z,103624.92
2019-02-25T23:13:07.028Z,103619.19
2019-02-25T23:15:34.290Z,103613.49
2019-02-25T23:18:05.328Z,103613.00
2019-02-25T23:20:31.799Z,103598.99
2019-02-25T23:23:03.648Z,103589.41
2019-02-25T23:25:28.752Z,103592.43
2019-02-25T23:27:57.900Z,103583.13
2019-02-25T23:30:25.138Z,103581.78
2019-02-25T23:32:54.519Z,103577.31
2019-02-25T23:35:23.088Z,103578.13
2019-02-25T23:37:51.397Z,103579.89
2019-02-25T23:40:19.740Z,103579.45
2019-02-25T23:42:48.988Z,103585.13
2019-02-25T23:45:17.990Z,103573.70
2019-02-25T23:47:45.234Z,103573.26
2019-02-25T23:50:13.692Z,103570.59
2019-02-25T23:52:41.098Z,103567.57
2019-02-25T23:55:12.196Z,103551.72
2019-02-25T23:57:37.665Z,103561.38
